Time;durP1;ratioP1;P1;durP2;ratioP2;P2;SDS_P1;SDS_P2;PMS_P1;PMS_P2;Temp;Humidity;BMP_temperature;BMP_pressure;BME280_temperature;BME280_humidity;BME280_pressure;Samples;Min_cycle;Max_cycle;Signal;HPM_P1;HPM_P2
2022/11/10 00:00:05;;;;;;;18.05;6.05;;;10.10;99.90;;;;;;5057407;28;20132;-67
2022/11/10 00:02:31;;;;;;;13.38;4.32;;;10.30;99.90;;;;;;5038818;28;20071;-67
2022/11/10 00:04:57;;;;;;;13.40;4.95;;;9.20;99.90;;;;;;5040337;28;20078;-68
2022/11/10 00:07:27;;;;;;;17.67;5.32;;;9.10;99.90;;;;;;5022856;28;20574;-68
2022/11/10 00:09:53;;;;;;;15.98;5.25;;;9.50;99.90;;;;;;5054310;28;20098;-68
2022/11/10 00:12:20;;;;;;;17.60;4.47;;;9.80;99.90;;;;;;5033893;28;20071;-67
2022/11/10 00:17:30;;;;;;;14.25;4.07;;;9.80;99.90;;;;;;5055844;28;20122;-67
2022/11/10 00:19:56;;;;;;;15.25;4.50;;;9.50;99.90;;;;;;5075250;28;20042;-67
2022/11/10 00:22:22;;;;;;;17.95;4.25;;;9.30;99.90;;;;;;5039468;28;20388;-67
2022/11/10 00:24:47;;;;;;;17.35;3.85;;;8.70;99.90;;;;;;5073105;28;20039;-67
2022/11/10 00:27:13;;;;;;;18.25;3.13;;;9.30;99.90;;;;;;5039235;28;20101;-67
2022/11/10 00:29:40;;;;;;;19.33;3.40;;;8.50;99.90;;;;;;5072243;28;20517;-69
2022/11/10 00:32:07;;;;;;;16.70;2.80;;;8.60;99.90;;;;;;5053676;28;20174;-68
2022/11/10 00:34:33;;;;;;;18.75;2.90;;;8.40;99.90;;;;;;5056229;28;20382;-68
2022/11/10 00:36:58;;;;;;;16.40;2.55;;;8.90;99.90;;;;;;5056487;28;20040;-68
2022/11/10 00:39:24;;;;;;;15.20;1.92;;;8.60;99.90;;;;;;5031839;28;20043;-68
2022/11/10 00:41:50;;;;;;;15.73;2.42;;;9.50;99.90;;;;;;5055426;28;20036;-68
2022/11/10 00:44:16;;;;;;;16.40;2.45;;;8.40;99.90;;;;;;5054232;28;20535;-68
2022/11/10 00:46:41;;;;;;;13.65;2.05;;;8.50;99.90;;;;;;5055571;28;20108;-66
2022/11/10 00:49:07;;;;;;;18.17;2.20;;;9.70;99.90;;;;;;5037475;28;20311;-67
2022/11/10 00:51:33;;;;;;;17.13;1.88;;;9.50;99.90;;;;;;5055829;28;20032;-68
2022/11/10 00:53:58;;;;;;;18.58;2.75;;;9.40;99.90;;;;;;5057028;28;20093;-67
2022/11/10 00:56:24;;;;;;;18.38;2.10;;;9.50;99.90;;;;;;5053661;28;20036;-67
2022/11/10 00:58:50;;;;;;;17.23;3.03;;;9.80;99.90;;;;;;5057053;28;20051;-67
2022/11/10 01:01:18;;;;;;;16.13;2.20;;;9.30;99.90;;;;;;5053580;28;20044;-68
2022/11/10 01:03:43;;;;;;;16.05;2.78;;;9.50;99.90;;;;;;5053880;28;20525;-68
2022/11/10 01:06:15;;;;;;;23.17;3.00;;;9.20;99.90;;;;;;5055619;28;20047;-67
2022/11/10 01:08:41;;;;;;;17.98;1.98;;;9.80;99.90;;;;;;5039817;28;20548;-67
2022/11/10 01:11:11;;;;;;;22.90;3.45;;;8.90;99.90;;;;;;5053589;28;20036;-67
2022/11/10 01:13:37;;;;;;;15.48;2.58;;;9.90;99.90;;;;;;5055740;28;20036;-67
2022/11/10 01:16:08;;;;;;;21.08;3.63;;;9.10;99.90;;;;;;5052770;28;20186;-67
2022/11/10 01:18:34;;;;;;;18.02;2.75;;;8.90;99.90;;;;;;5055526;28;20501;-67
2022/11/10 01:21:00;;;;;;;17.30;2.63;;;9.80;99.90;;;;;;5039074;28;20302;-66
2022/11/10 01:23:26;;;;;;;14.40;2.58;;;9.70;99.90;;;;;;5056121;28;20283;-68
2022/11/10 01:25:57;;;;;;;22.13;3.72;;;8.90;99.90;;;;;;5074178;28;20036;-67
2022/11/10 01:28:22;;;;;;;25.63;2.95;;;9.10;99.90;;;;;;5054676;28;20054;-67
2022/11/10 01:30:48;;;;;;;19.70;3.00;;;9.70;99.90;;;;;;5056051;28;20040;-68
2022/11/10 01:33:16;;;;;;;17.60;3.00;;;8.80;99.90;;;;;;5032433;28;20088;-67
2022/11/10 01:35:42;;;;;;;23.95;3.28;;;9.50;99.90;;;;;;5034490;28;20446;-67
2022/11/10 01:38:07;;;;;;;18.77;3.20;;;8.90;99.90;;;;;;5035383;28;20131;-67
2022/11/10 01:40:33;;;;;;;17.65;3.08;;;9.40;99.90;;;;;;5019948;28;20081;-67
2022/11/10 01:42:59;;;;;;;20.70;3.35;;;9.70;99.90;;;;;;5018546;28;20218;-67
2022/11/10 01:45:25;;;;;;;20.27;3.25;;;9.40;99.90;;;;;;5056475;28;20041;-68
2022/11/10 01:48:04;;;;;;;20.20;3.92;;;8.80;99.90;;;;;;5052684;28;20187;-67
2022/11/10 01:50:36;;;;;;;17.48;3.53;;;9.70;99.90;;;;;;5054764;28;20445;-67
2022/11/10 01:53:04;;;;;;;15.02;3.72;;;9.30;99.90;;;;;;5039670;28;20037;-67
2022/11/10 01:55:31;;;;;;;20.27;3.60;;;9.10;99.90;;;;;;5056365;28;20102;-68
2022/11/10 01:57:57;;;;;;;22.15;3.75;;;9.30;99.90;;;;;;5054664;28;20067;-68
2022/11/10 02:00:23;;;;;;;16.45;3.40;;;8.90;99.90;;;;;;5038878;28;20441;-67
2022/11/10 02:02:54;;;;;;;20.38;4.10;;;9.30;99.90;;;;;;5055381;28;20541;-67
2022/11/10 02:05:22;;;;;;;23.40;4.78;;;8.70;99.90;;;;;;5035551;28;20055;-68
2022/11/10 02:07:51;;;;;;;22.02;3.95;;;8.70;99.90;;;;;;5055346;28;20032;-67
2022/11/10 02:10:19;;;;;;;17.42;3.72;;;9.60;99.90;;;;;;5039202;28;20435;-68
2022/11/10 02:12:46;;;;;;;24.30;5.40;;;9.00;99.90;;;;;;5053902;28;20052;-67
2022/11/10 02:15:14;;;;;;;18.15;4.57;;;9.70;99.90;;;;;;5038932;28;20309;-68
2022/11/10 02:17:40;;;;;;;20.48;4.90;;;8.90;99.90;;;;;;5037938;28;20510;-68
2022/11/10 02:20:10;;;;;;;18.27;5.18;;;8.70;99.90;;;;;;5034849;28;20045;-68
2022/11/10 02:22:37;;;;;;;25.40;5.20;;;9.40;99.90;;;;;;5053241;28;20198;-68
2022/11/10 02:25:04;;;;;;;21.08;5.40;;;8.80;99.90;;;;;;5054708;28;20056;-67
2022/11/10 02:27:29;;;;;;;19.63;5.10;;;8.80;99.90;;;;;;5055795;28;20048;-67
2022/11/10 02:29:56;;;;;;;23.70;5.93;;;9.60;99.90;;;;;;5037992;28;20666;-68
2022/11/10 02:32:21;;;;;;;18.73;5.25;;;9.40;99.90;;;;;;5039892;28;20040;-67
2022/11/10 02:34:47;;;;;;;22.02;5.85;;;8.80;99.90;;;;;;5040504;28;20036;-68
2022/11/10 02:37:14;;;;;;;31.60;6.60;;;9.50;99.90;;;;;;5073461;28;20190;-68
2022/11/10 02:39:39;;;;;;;25.65;5.80;;;8.70;99.90;;;;;;5041779;28;20176;-68
2022/11/10 02:42:09;;;;;;;24.98;6.95;;;9.50;99.90;;;;;;5057976;28;20303;-69
2022/11/10 02:44:39;;;;;;;27.58;7.25;;;9.70;99.90;;;;;;5039499;28;20052;-68
2022/11/10 02:47:06;;;;;;;17.83;6.45;;;8.70;99.90;;;;;;5058332;28;20074;-67
2022/11/10 02:49:32;;;;;;;25.35;6.97;;;9.20;99.90;;;;;;5058387;28;20074;-67
2022/11/10 02:51:57;;;;;;;33.15;8.38;;;8.60;99.90;;;;;;5054780;28;20738;-67
2022/11/10 02:54:23;;;;;;;28.35;7.55;;;8.70;99.90;;;;;;5057749;28;20049;-67
2022/11/10 02:56:49;;;;;;;25.63;8.25;;;9.70;99.90;;;;;;5042183;28;20127;-67
2022/11/10 02:59:14;;;;;;;29.75;8.10;;;8.70;99.90;;;;;;5055726;28;20514;-67
2022/11/10 03:01:40;;;;;;;26.50;7.60;;;8.80;99.90;;;;;;5057437;28;20121;-67
2022/11/10 03:04:06;;;;;;;26.70;7.75;;;8.80;99.90;;;;;;5076267;28;20040;-67
2022/11/10 03:06:31;;;;;;;23.70;8.10;;;8.80;99.90;;;;;;5054303;28;20047;-67
2022/11/10 03:08:58;;;;;;;26.90;7.40;;;9.70;99.90;;;;;;5037820;28;20048;-66
2022/11/10 03:11:24;;;;;;;29.80;7.72;;;9.50;99.90;;;;;;5041535;28;20047;-67
2022/11/10 03:13:49;;;;;;;23.90;7.22;;;9.50;99.90;;;;;;5059114;28;20036;-67
2022/11/10 03:16:15;;;;;;;24.92;7.30;;;9.80;99.90;;;;;;5040715;28;20035;-68
2022/11/10 03:18:41;;;;;;;31.92;7.25;;;9.10;99.90;;;;;;5042462;28;20329;-68
2022/11/10 03:21:06;;;;;;;27.83;7.80;;;8.80;99.90;;;;;;5041544;28;20048;-68
2022/11/10 03:23:33;;;;;;;26.35;7.38;;;9.50;99.90;;;;;;5072200;28;20184;-68
2022/11/10 03:26:02;;;;;;;33.33;8.65;;;9.60;99.90;;;;;;5058654;28;20096;-67
2022/11/10 03:28:27;;;;;;;25.80;8.63;;;8.60;99.90;;;;;;5076370;28;20047;-67
2022/11/10 03:30:53;;;;;;;30.15;9.30;;;8.60;99.90;;;;;;5056649;28;20040;-68
2022/11/10 03:33:19;;;;;;;30.35;8.23;;;8.70;99.90;;;;;;5057474;28;20256;-68
2022/11/10 03:35:44;;;;;;;30.30;8.18;;;8.80;99.90;;;;;;5042245;28;20075;-68
2022/11/10 03:38:10;;;;;;;25.42;7.95;;;9.50;99.90;;;;;;5039845;28;20035;-68
2022/11/10 03:40:36;;;;;;;27.45;8.00;;;8.80;99.90;;;;;;5074470;28;20194;-68
2022/11/10 03:43:01;;;;;;;29.45;8.35;;;9.30;99.90;;;;;;5041703;28;20488;-68
2022/11/10 03:45:27;;;;;;;25.27;8.93;;;9.70;99.90;;;;;;5053734;28;20417;-68
2022/11/10 03:47:53;;;;;;;29.98;7.80;;;8.70;99.90;;;;;;5039472;28;20071;-68
2022/11/10 03:50:18;;;;;;;30.63;8.57;;;8.70;99.90;;;;;;5058230;28;20046;-68
2022/11/10 03:52:45;;;;;;;18.67;4.93;;;9.40;99.90;;;;;;5042314;28;20048;-68
2022/11/10 03:55:14;;;;;;;29.15;8.70;;;9.30;99.90;;;;;;5019709;28;20036;-68
2022/11/10 03:57:40;;;;;;;29.92;8.20;;;9.60;99.90;;;;;;5041332;28;20115;-68
2022/11/10 04:00:06;;;;;;;26.05;7.70;;;9.70;99.90;;;;;;5076132;28;20576;-68
2022/11/10 04:02:32;;;;;;;26.98;7.28;;;9.60;99.90;;;;;;5073958;28;20039;-69
2022/11/10 04:10:26;;;;;;;21.60;7.28;;;8.90;99.90;;;;;;5053252;28;20545;-68
2022/11/10 04:15:42;;;;;;;28.67;7.70;;;9.70;99.90;;;;;;5057000;28;20072;-68
2022/11/10 04:18:25;;;;;;;26.90;7.00;;;8.80;99.90;;;;;;5039350;28;20047;-68
2022/11/10 04:20:58;;;;;;;25.38;7.70;;;9.80;99.90;;;;;;5076063;28;20464;-68
2022/11/10 04:23:29;;;;;;;25.50;7.55;;;9.70;99.90;;;;;;5039964;28;20040;-68
2022/11/10 04:28:51;;;;;;;24.20;7.75;;;8.90;99.90;;;;;;5058026;28;20078;-68
2022/11/10 04:31:18;;;;;;;18.33;6.47;;;9.60;99.90;;;;;;5057693;28;20044;-68
2022/11/10 04:33:45;;;;;;;29.27;7.22;;;8.80;99.90;;;;;;5055747;28;20060;-68
2022/11/10 04:36:13;;;;;;;23.38;7.10;;;9.00;99.90;;;;;;5040695;28;21220;-68
2022/11/10 04:38:40;;;;;;;30.10;7.75;;;9.40;99.90;;;;;;5040490;28;20044;-69
2022/11/10 04:41:06;;;;;;;29.17;8.05;;;9.60;99.90;;;;;;5055786;28;20097;-67
2022/11/10 04:43:32;;;;;;;36.85;8.73;;;9.70;99.90;;;;;;5039782;28;20050;-68
2022/11/10 04:45:58;;;;;;;30.25;8.02;;;9.40;99.90;;;;;;5057378;28;20756;-68
2022/11/10 04:48:25;;;;;;;30.58;8.20;;;8.70;99.90;;;;;;5055914;28;20349;-68
2022/11/10 04:50:52;;;;;;;30.38;8.23;;;9.70;99.90;;;;;;5058102;28;20188;-68
2022/11/10 04:53:18;;;;;;;30.02;8.77;;;9.30;99.90;;;;;;5056879;28;20036;-68
2022/11/10 04:55:45;;;;;;;27.75;8.38;;;9.40;99.90;;;;;;5039823;28;20289;-69
2022/11/10 04:58:12;;;;;;;31.00;8.63;;;9.60;99.90;;;;;;5038900;28;20387;-69
2022/11/10 05:00:38;;;;;;;29.95;8.80;;;8.80;99.90;;;;;;5041109;28;20036;-69
2022/11/10 05:03:07;;;;;;;26.98;8.55;;;9.40;99.90;;;;;;5056998;28;20036;-68
2022/11/10 05:05:33;;;;;;;28.15;9.02;;;9.00;99.90;;;;;;5056859;28;20097;-67
2022/11/10 05:07:59;;;;;;;28.88;9.20;;;9.50;99.90;;;;;;5057812;28;20076;-68
2022/11/10 05:10:25;;;;;;;29.02;9.10;;;9.00;99.90;;;;;;5058085;28;20156;-65
2022/11/10 05:12:55;;;;;;;34.08;9.65;;;9.60;99.90;;;;;;5067206;28;20140;-67
2022/11/10 05:15:21;;;;;;;34.35;9.98;;;9.80;99.90;;;;;;5065900;28;20035;-66
2022/11/10 05:17:52;;;;;;;37.47;9.93;;;9.50;99.90;;;;;;5069334;28;20072;-65
2022/11/10 05:20:19;;;;;;;28.23;9.52;;;9.00;99.90;;;;;;5088276;28;20039;-66
2022/11/10 05:23:36;;;;;;;37.28;9.75;;;10.00;99.90;;;;;;5071137;28;20070;-65
2022/11/10 05:25:31;;;;;;;36.30;10.15;;;9.90;99.90;;;;;;5071190;28;20097;-65
2022/11/10 05:27:57;;;;;;;34.70;10.20;;;9.10;99.90;;;;;;5070476;28;20048;-66
2022/11/10 05:30:23;;;;;;;32.78;9.48;;;9.80;99.90;;;;;;5069766;28;20493;-66
2022/11/10 05:32:48;;;;;;;32.13;9.63;;;9.80;99.90;;;;;;5088727;28;20052;-67
2022/11/10 05:35:14;;;;;;;39.42;10.70;;;9.90;99.90;;;;;;5071277;28;20451;-65
2022/11/10 05:37:40;;;;;;;38.88;10.50;;;9.10;99.90;;;;;;5053586;28;20051;-65
2022/11/10 05:40:06;;;;;;;38.47;10.45;;;9.80;99.90;;;;;;5036577;28;20048;-69
2022/11/10 05:42:32;;;;;;;36.70;9.95;;;9.30;99.90;;;;;;5070710;28;20036;-67
2022/11/10 05:44:57;;;;;;;33.90;10.30;;;9.90;99.90;;;;;;5053402;28;20066;-66
2022/11/10 05:47:23;;;;;;;31.92;10.55;;;9.80;99.90;;;;;;5070506;28;20438;-66
2022/11/10 05:49:49;;;;;;;39.80;10.82;;;9.10;99.90;;;;;;5053753;28;20040;-65
2022/11/10 05:52:14;;;;;;;35.15;8.77;;;9.20;99.90;;;;;;5070039;28;20123;-67
2022/11/10 05:54:40;;;;;;;32.15;9.40;;;9.90;99.90;;;;;;5047391;28;20054;-66
2022/11/10 05:57:06;;;;;;;32.47;9.60;;;10.10;99.90;;;;;;5077142;28;20472;-67
2022/11/10 05:59:31;;;;;;;31.13;8.82;;;9.60;99.90;;;;;;5058479;28;20054;-66
2022/11/10 06:01:57;;;;;;;30.60;8.88;;;9.20;99.90;;;;;;5056828;28;20071;-67
2022/11/10 06:04:23;;;;;;;32.33;9.02;;;9.90;99.90;;;;;;5077845;28;20028;-66
2022/11/10 06:06:48;;;;;;;29.65;8.55;;;9.90;99.90;;;;;;5041078;28;20204;-67
2022/11/10 06:09:14;;;;;;;36.63;9.18;;;10.00;99.90;;;;;;5057996;28;20047;-66
2022/11/10 06:11:40;;;;;;;31.75;8.60;;;9.20;99.90;;;;;;5042227;28;20039;-67
2022/11/10 06:14:05;;;;;;;28.77;7.53;;;9.20;99.90;;;;;;5022068;28;20438;-66
2022/11/10 06:16:31;;;;;;;30.48;7.72;;;10.00;99.90;;;;;;5042104;28;20055;-66
2022/11/10 06:18:57;;;;;;;26.02;6.57;;;10.10;99.90;;;;;;5057213;28;20093;-66
2022/11/10 06:21:22;;;;;;;31.33;8.18;;;10.00;99.90;;;;;;5057068;28;20063;-67
2022/11/10 06:23:48;;;;;;;32.65;7.00;;;9.70;99.90;;;;;;5041879;28;20047;-66
2022/11/10 06:26:14;;;;;;;31.17;7.22;;;9.70;99.90;;;;;;5059093;28;20195;-66
2022/11/10 06:28:39;;;;;;;36.08;7.72;;;9.30;99.90;;;;;;5023582;28;20184;-68
2022/11/10 06:31:05;;;;;;;30.98;6.88;;;9.90;99.90;;;;;;5042565;28;20505;-67
2022/11/10 06:33:34;;;;;;;32.63;7.25;;;9.90;99.90;;;;;;5035250;28;20057;-67
2022/11/10 06:35:59;;;;;;;31.73;6.47;;;9.30;99.90;;;;;;5054214;28;20290;-67
2022/11/10 06:38:25;;;;;;;28.95;6.28;;;10.10;99.90;;;;;;5038267;28;20402;-67
2022/11/10 06:40:51;;;;;;;39.83;7.50;;;9.90;99.90;;;;;;5055539;28;20051;-66
2022/11/10 06:43:16;;;;;;;31.88;6.68;;;9.40;99.90;;;;;;5020693;28;20041;-65
2022/11/10 06:45:42;;;;;;;21.95;5.63;;;10.00;99.90;;;;;;5056415;28;20373;-67
2022/11/10 06:48:13;;;;;;;33.95;6.90;;;10.00;99.90;;;;;;5022685;28;20048;-67
2022/11/10 06:50:38;;;;;;;27.52;6.22;;;9.20;99.90;;;;;;5053821;28;20052;-67
2022/11/10 06:53:04;;;;;;;31.33;6.75;;;9.20;99.90;;;;;;5037203;28;20044;-67
2022/11/10 06:55:30;;;;;;;28.33;6.03;;;9.30;99.90;;;;;;5054246;28;20036;-67
2022/11/10 06:57:56;;;;;;;27.95;6.15;;;10.00;99.90;;;;;;5049273;28;20279;-66
2022/11/10 07:00:23;;;;;;;33.30;6.13;;;10.10;99.90;;;;;;5030336;28;20048;-67
2022/11/10 07:02:58;;;;;;;28.60;5.95;;;10.10;99.90;;;;;;5049901;28;20113;-66
2022/11/10 07:05:23;;;;;;;33.45;6.03;;;9.40;99.90;;;;;;5014077;28;20045;-67
2022/11/10 07:07:50;;;;;;;24.73;5.07;;;9.30;99.90;;;;;;5030409;28;20778;-67
2022/11/10 07:10:15;;;;;;;32.72;5.78;;;9.90;99.90;;;;;;5050610;28;20072;-67
2022/11/10 07:12:41;;;;;;;29.85;6.18;;;9.50;99.90;;;;;;5050831;28;20132;-67
2022/11/10 07:15:08;;;;;;;31.55;5.60;;;10.10;99.90;;;;;;5049762;28;20032;-67
2022/11/10 07:17:40;;;;;;;30.27;5.28;;;9.60;99.90;;;;;;5058309;28;20074;-67
2022/11/10 07:20:10;;;;;;;29.05;4.60;;;9.70;99.90;;;;;;5051657;28;21343;-67
2022/11/10 07:22:36;;;;;;;31.77;5.15;;;9.70;99.90;;;;;;5039758;28;20048;-67
2022/11/10 07:25:02;;;;;;;23.08;4.65;;;9.90;99.90;;;;;;5052718;28;20567;-67
2022/11/10 07:27:28;;;;;;;33.08;5.38;;;10.30;99.90;;;;;;5037029;28;20556;-67
2022/11/10 07:29:54;;;;;;;29.45;5.13;;;9.90;99.90;;;;;;5052348;28;20049;-67
2022/11/10 07:32:19;;;;;;;25.90;4.75;;;9.80;99.90;;;;;;5053166;28;20064;-67
2022/11/10 07:34:45;;;;;;;29.38;5.10;;;10.60;99.90;;;;;;5053229;28;20126;-68
2022/11/10 07:37:11;;;;;;;24.80;5.07;;;10.70;99.90;;;;;;5050647;28;20110;-67
2022/11/10 07:39:36;;;;;;;19.67;3.88;;;9.90;99.90;;;;;;5051407;28;20644;-67
2022/11/10 07:42:02;;;;;;;27.92;5.18;;;10.10;99.90;;;;;;5053820;28;20044;-67
2022/11/10 07:44:28;;;;;;;29.25;5.15;;;10.30;99.90;;;;;;5054648;28;20442;-67
2022/11/10 07:46:53;;;;;;;31.75;5.18;;;10.70;99.90;;;;;;5052592;28;20040;-66
2022/11/10 07:49:19;;;;;;;27.88;4.97;;;10.70;99.90;;;;;;5053254;28;20119;-66
2022/11/10 07:51:44;;;;;;;26.45;4.90;;;10.80;99.90;;;;;;5037437;28;20074;-69
2022/11/10 07:54:10;;;;;;;26.80;4.63;;;10.30;99.90;;;;;;5048936;28;20185;-68
2022/11/10 07:56:36;;;;;;;28.50;5.15;;;10.20;99.90;;;;;;5053526;28;20097;-67
2022/11/10 07:59:02;;;;;;;24.38;4.35;;;10.90;99.90;;;;;;5036346;28;20070;-68
2022/11/10 08:01:27;;;;;;;25.65;3.88;;;10.90;99.90;;;;;;5035718;28;20044;-67
2022/11/10 08:03:53;;;;;;;28.50;4.45;;;10.30;99.90;;;;;;5035508;28;20048;-67
2022/11/10 08:06:19;;;;;;;33.80;5.45;;;10.40;99.90;;;;;;5052162;28;20045;-67
2022/11/10 08:08:46;;;;;;;30.50;6.15;;;10.90;99.90;;;;;;5051305;28;20435;-67
2022/11/10 08:11:11;;;;;;;27.05;5.45;;;10.90;99.90;;;;;;5034143;28;20051;-67
2022/11/10 08:13:38;;;;;;;28.92;5.28;;;10.40;99.90;;;;;;5053880;28;20037;-67
2022/11/10 08:16:04;;;;;;;27.33;4.95;;;10.40;99.90;;;;;;5052793;28;20045;-67
2022/11/10 08:18:30;;;;;;;27.50;5.13;;;10.20;99.90;;;;;;5027242;28;20542;-69
2022/11/10 08:20:56;;;;;;;27.00;5.38;;;10.40;99.90;;;;;;5029051;28;20047;-67
2022/11/10 08:23:22;;;;;;;36.40;5.93;;;10.20;99.90;;;;;;5053894;28;20048;-67
2022/11/10 08:25:51;;;;;;;24.35;5.35;;;10.40;99.90;;;;;;5037155;28;20787;-67
2022/11/10 08:28:18;;;;;;;32.08;5.93;;;10.80;99.90;;;;;;5038450;28;20076;-66
2022/11/10 08:30:45;;;;;;;33.55;5.93;;;10.70;99.90;;;;;;5018855;28;20047;-65
2022/11/10 08:33:13;;;;;;;27.30;5.22;;;10.90;99.90;;;;;;5043441;28;20235;-66
2022/11/10 08:35:41;;;;;;;26.52;5.55;;;10.80;99.90;;;;;;5055865;28;20405;-66
2022/11/10 08:38:16;;;;;;;34.63;6.90;;;10.90;99.90;;;;;;5055509;28;20495;-68
2022/11/10 08:40:42;;;;;;;28.35;5.50;;;10.50;99.90;;;;;;5052375;28;20047;-67
2022/11/10 08:43:09;;;;;;;22.13;5.00;;;10.90;99.90;;;;;;5055444;28;20062;-67
2022/11/10 08:45:36;;;;;;;26.25;6.00;;;10.90;99.90;;;;;;5054448;28;20190;-67
2022/11/10 08:48:05;;;;;;;26.63;4.85;;;11.00;99.90;;;;;;5038644;28;20123;-68
2022/11/10 08:50:31;;;;;;;20.67;5.00;;;11.20;99.90;;;;;;5055274;28;20510;-68
2022/11/10 08:53:01;;;;;;;21.90;5.05;;;11.10;99.90;;;;;;5054991;28;20287;-68
2022/11/10 08:55:27;;;;;;;24.73;4.78;;;11.40;99.90;;;;;;5036742;28;20055;-68
2022/11/10 08:57:58;;;;;;;30.35;5.30;;;11.60;99.90;;;;;;5052958;28;20047;-67
2022/11/10 09:00:24;;;;;;;23.15;3.92;;;11.60;99.90;;;;;;5055059;28;20048;-66
2022/11/10 09:02:49;;;;;;;29.35;5.50;;;11.30;99.90;;;;;;5021078;28;20455;-67
2022/11/10 09:05:15;;;;;;;21.88;4.53;;;11.20;99.90;;;;;;5054145;28;20047;-67
2022/11/10 09:07:45;;;;;;;21.63;4.47;;;11.50;99.90;;;;;;5054565;28;20402;-67
2022/11/10 09:10:12;;;;;;;24.88;4.57;;;11.70;99.90;;;;;;5056736;28;20220;-67
2022/11/10 09:12:38;;;;;;;24.40;4.20;;;11.40;99.90;;;;;;5051927;28;20047;-67
2022/11/10 09:15:04;;;;;;;32.30;5.95;;;11.60;99.90;;;;;;5040094;28;20032;-68
2022/11/10 09:17:31;;;;;;;28.25;4.82;;;11.70;99.90;;;;;;5037853;28;20040;-68
2022/11/10 09:19:56;;;;;;;21.65;4.85;;;12.40;99.90;;;;;;5054580;28;20289;-68
2022/11/10 09:22:22;;;;;;;27.10;4.57;;;12.60;99.90;;;;;;5021998;28;20082;-68
2022/11/10 09:24:48;;;;;;;25.55;5.18;;;12.70;99.90;;;;;;5021337;28;20426;-68
2022/11/10 09:27:13;;;;;;;17.50;3.90;;;12.90;99.90;;;;;;5050758;28;20044;-68
2022/11/10 09:29:39;;;;;;;23.83;4.93;;;13.20;99.90;;;;;;5055264;28;20048;-68
2022/11/10 09:32:05;;;;;;;19.98;4.07;;;13.50;99.90;;;;;;5021989;28;20039;-68
2022/11/10 09:34:30;;;;;;;15.77;3.60;;;13.70;99.90;;;;;;5037632;28;20125;-68
2022/11/10 09:36:56;;;;;;;18.73;4.18;;;13.90;99.90;;;;;;5021665;28;20470;-68
2022/11/10 09:39:22;;;;;;;21.63;3.88;;;14.10;99.90;;;;;;5054452;28;20123;-68
2022/11/10 09:41:48;;;;;;;17.73;3.55;;;14.80;99.90;;;;;;5055181;28;20253;-67
2022/11/10 09:44:31;;;;;;;19.83;3.67;;;14.70;99.90;;;;;;5035556;28;20052;-68
2022/11/10 09:47:01;;;;;;;17.33;3.55;;;13.60;99.90;;;;;;5055476;28;20449;-68
2022/11/10 09:49:51;;;;;;;16.92;3.13;;;13.70;99.90;;;;;;5037157;28;20368;-69
2022/11/10 09:52:19;;;;;;;21.35;4.30;;;13.70;99.90;;;;;;5053739;28;20189;-67
2022/11/10 09:55:02;;;;;;;20.42;3.70;;;13.90;99.90;;;;;;5056281;28;20539;-68
2022/11/10 09:57:29;;;;;;;21.60;3.50;;;13.60;99.90;;;;;;5054969;28;20072;-68
2022/11/10 09:59:55;;;;;;;18.52;3.17;;;13.60;99.90;;;;;;5053562;28;20223;-68
2022/11/10 10:02:40;;;;;;;19.65;4.15;;;14.40;99.90;;;;;;5060212;28;20068;-66
2022/11/10 10:05:06;;;;;;;17.17;2.80;;;14.00;99.90;;;;;;5064876;28;20368;-67
2022/11/10 10:07:50;;;;;;;25.50;3.35;;;14.60;99.90;;;;;;5065979;28;20104;-66
2022/11/10 10:10:25;;;;;;;19.70;3.00;;;14.00;99.90;;;;;;5048640;28;20090;-65
2022/11/10 10:13:20;;;;;;;22.20;4.05;;;14.20;99.90;;;;;;5065876;28;20419;-66
2022/11/10 10:15:59;;;;;;;20.02;3.58;;;13.90;99.90;;;;;;5067458;28;20397;-65
2022/11/10 10:18:30;;;;;;;22.58;4.00;;;13.70;99.90;;;;;;5068206;28;20064;-67
2022/11/10 10:21:02;;;;;;;17.92;4.15;;;13.90;99.90;;;;;;5067786;28;20071;-65
2022/11/10 10:23:40;;;;;;;20.67;3.95;;;14.00;99.90;;;;;;5086070;28;20071;-65
2022/11/10 10:26:11;;;;;;;16.13;3.90;;;13.80;99.90;;;;;;5067817;28;20622;-65
2022/11/10 10:28:39;;;;;;;19.30;3.50;;;14.30;99.90;;;;;;5066640;28;20243;-67
2022/11/10 10:31:24;;;;;;;23.17;4.45;;;13.90;99.90;;;;;;5064370;28;20117;-67
2022/11/10 10:33:51;;;;;;;21.08;4.38;;;14.40;99.90;;;;;;5059465;28;20060;-68
2022/11/10 10:36:22;;;;;;;22.33;4.63;;;14.50;99.90;;;;;;5059999;28;20101;-67
2022/11/10 10:38:51;;;;;;;17.92;4.07;;;14.30;99.90;;;;;;5058626;28;20043;-67
2022/11/10 10:41:26;;;;;;;29.23;5.28;;;13.80;99.90;;;;;;5060493;28;20035;-67
2022/11/10 10:43:55;;;;;;;22.27;4.88;;;13.80;99.90;;;;;;5077868;28;20357;-68
2022/11/10 10:46:28;;;;;;;18.33;4.05;;;14.20;99.90;;;;;;5057753;28;20082;-67
2022/11/10 10:49:15;;;;;;;21.38;4.22;;;14.00;99.90;;;;;;5042951;28;20044;-67
2022/11/10 10:51:41;;;;;;;22.17;4.05;;;14.20;99.90;;;;;;5042667;28;20489;-67
2022/11/10 10:54:31;;;;;;;22.17;4.03;;;14.20;99.90;;;;;;5026324;28;20047;-67
2022/11/10 10:57:23;;;;;;;20.33;3.75;;;14.50;99.90;;;;;;5051495;28;21401;-68
2022/11/10 10:59:50;;;;;;;20.52;2.90;;;14.20;99.90;;;;;;5057398;28;20081;-67
2022/11/10 11:02:29;;;;;;;21.40;3.85;;;14.30;99.90;;;;;;5040674;28;20044;-68
2022/11/10 11:05:13;;;;;;;19.10;3.33;;;13.80;99.90;;;;;;5059384;28;20044;-66
2022/11/10 11:07:40;;;;;;;21.35;2.90;;;14.10;99.90;;;;;;5073946;28;20062;-66
2022/11/10 11:10:27;;;;;;;17.08;2.50;;;14.50;99.90;;;;;;5042546;28;20051;-65
2022/11/10 11:12:53;;;;;;;21.45;3.17;;;15.00;99.90;;;;;;5056309;28;20160;-66
2022/11/10 11:15:27;;;;;;;18.88;3.00;;;15.30;99.90;;;;;;5056708;28;20089;-66
2022/11/10 11:17:59;;;;;;;16.52;3.13;;;15.60;99.90;;;;;;5056823;28;20077;-66
2022/11/10 11:20:33;;;;;;;16.83;2.53;;;15.20;99.90;;;;;;5059099;28;20044;-66
2022/11/10 11:23:22;;;;;;;19.38;2.95;;;14.80;99.90;;;;;;5043408;28;20055;-66
2022/11/10 11:25:50;;;;;;;21.63;3.08;;;14.90;99.90;;;;;;5040554;28;20060;-65
2022/11/10 11:28:47;;;;;;;15.20;2.58;;;14.70;99.90;;;;;;5058446;28;20044;-66
2022/11/10 11:31:27;;;;;;;13.60;2.38;;;14.80;99.90;;;;;;5073288;28;20047;-66
2022/11/10 11:34:11;;;;;;;20.38;3.45;;;15.10;99.90;;;;;;5072195;28;20044;-66
2022/11/10 11:37:03;;;;;;;19.60;3.05;;;15.40;99.90;;;;;;5076790;28;20556;-66
2022/11/10 11:39:49;;;;;;;19.25;3.13;;;15.00;99.90;;;;;;5072579;28;20048;-67
2022/11/10 11:42:27;;;;;;;20.45;3.63;;;14.90;99.90;;;;;;5058326;28;20075;-67
2022/11/10 11:45:02;;;;;;;18.90;3.30;;;15.20;99.90;;;;;;5050357;28;20036;-66
2022/11/10 11:47:59;;;;;;;22.98;3.85;;;14.90;99.90;;;;;;5073564;28;20038;-67
2022/11/10 11:50:52;;;;;;;21.98;4.18;;;15.00;99.90;;;;;;5072910;28;20063;-66
2022/11/10 11:53:43;;;;;;;22.00;4.25;;;14.30;99.90;;;;;;5057365;28;20039;-66
2022/11/10 11:56:12;;;;;;;16.45;2.80;;;14.70;99.90;;;;;;5057547;28;20040;-66
2022/11/10 11:58:43;;;;;;;21.27;3.13;;;14.20;99.90;;;;;;5076305;28;20501;-66
2022/11/10 12:01:38;;;;;;;24.77;3.53;;;14.50;99.90;;;;;;5057621;28;20051;-65
2022/11/10 12:04:35;;;;;;;22.58;4.10;;;14.40;99.90;;;;;;5039847;28;20188;-66
2022/11/10 12:07:12;;;;;;;22.77;3.92;;;14.10;99.90;;;;;;5071588;28;20101;-67
2022/11/10 12:10:07;;;;;;;19.25;3.70;;;14.00;99.90;;;;;;5054052;28;20098;-67
2022/11/10 12:12:35;;;;;;;17.23;3.50;;;14.00;99.90;;;;;;5074236;28;20075;-67
2022/11/10 12:15:27;;;;;;;17.30;3.92;;;14.30;99.90;;;;;;5072924;28;20040;-67
2022/11/10 12:18:31;;;;;;;18.77;4.07;;;14.20;99.90;;;;;;5072546;28;20036;-66
2022/11/10 12:21:15;;;;;;;18.15;3.90;;;14.30;99.90;;;;;;5075259;28;20401;-66
2022/11/10 12:24:16;;;;;;;16.80;3.20;;;14.30;99.90;;;;;;5053888;28;20044;-66
2022/11/10 12:26:54;;;;;;;20.35;4.05;;;13.90;99.90;;;;;;5066150;28;20056;-66
2022/11/10 12:29:30;;;;;;;17.77;3.50;;;13.90;99.90;;;;;;5072988;28;20044;-66
2022/11/10 12:32:10;;;;;;;22.70;3.50;;;14.30;99.90;;;;;;5075105;28;20394;-66
2022/11/10 12:34:41;;;;;;;20.15;2.85;;;14.00;99.90;;;;;;5038598;28;20296;-67
2022/11/10 12:37:15;;;;;;;19.48;2.95;;;13.80;99.90;;;;;;5034533;28;20053;-66
2022/11/10 12:39:48;;;;;;;14.13;2.47;;;13.80;99.90;;;;;;5035446;28;20448;-67
2022/11/10 12:42:20;;;;;;;17.98;3.20;;;14.10;99.90;;;;;;5032099;28;20452;-67
2022/11/10 12:45:00;;;;;;;15.52;2.70;;;13.80;99.90;;;;;;5032337;28;20422;-66
2022/11/10 12:47:41;;;;;;;19.58;3.33;;;14.30;99.90;;;;;;5032756;28;20041;-66
2022/11/10 12:50:34;;;;;;;23.20;3.38;;;13.60;99.90;;;;;;5020982;28;20076;-66
2022/11/10 12:53:25;;;;;;;24.85;3.50;;;14.00;99.90;;;;;;5032619;28;20037;-65
2022/11/10 12:56:20;;;;;;;18.15;2.83;;;13.30;99.90;;;;;;5033606;28;20068;-65
2022/11/10 12:58:46;;;;;;;23.48;2.83;;;13.80;99.90;;;;;;5033764;28;20402;-65
2022/11/10 13:01:18;;;;;;;16.30;2.78;;;13.70;99.90;;;;;;5015536;28;20040;-66
2022/11/10 13:04:00;;;;;;;26.73;3.58;;;13.60;99.90;;;;;;5030129;28;20049;-65
2022/11/10 13:06:39;;;;;;;21.48;3.03;;;13.70;99.90;;;;;;5031692;28;20179;-66
2022/11/10 13:09:04;;;;;;;23.63;3.20;;;13.60;99.90;;;;;;5029633;28;20041;-66